Terminal Aerodrome Forecast
Issued by NWS Wakefield, VA

Home | Current Version | Previous Version | Text Only | Print | Product List | Glossary On
Versions: 1 2 3 4 5 6 7 8 9 10 11 12 13 14 15 16 17 18 19 20 21
000
FTUS41 KAKQ 261120
TAFORF
TAF
KORF 261120Z 2612/2712 36006KT P6SM BKN050
     FM261700 03005KT P6SM BKN060
     FM262100 10006KT P6SM BKN100
     FM270200 14007KT P6SM BKN050
     FM270700 13008KT 6SM SHRA OVC025
     FM271000 13009KT 5SM SHRA OVC010=

USA.gov is the U.S. government's official web portal to all federal, state and local government web resources and services.